sensor_id;sensor_type;location;lat;lon;timestamp;temperature;humidity
11055;DHT22;5580;50.106;8.702;2024-03-08T00:00:41;6.60;99.90
11055;DHT22;5580;50.106;8.702;2024-03-08T00:03:08;6.60;99.90
11055;DHT22;5580;50.106;8.702;2024-03-08T00:05:35;6.50;99.90
11055;DHT22;5580;50.106;8.702;2024-03-08T00:08:01;6.60;99.90
11055;DHT22;5580;50.106;8.702;2024-03-08T00:10:27;6.60;99.90
11055;DHT22;5580;50.106;8.702;2024-03-08T00:12:54;6.60;99.90
11055;DHT22;5580;50.106;8.702;2024-03-08T00:15:20;6.60;99.90
11055;DHT22;5580;50.106;8.702;2024-03-08T00:17:48;6.60;99.90
11055;DHT22;5580;50.106;8.702;2024-03-08T00:20:14;6.50;99.90
11055;DHT22;5580;50.106;8.702;2024-03-08T00:22:40;6.50;99.90
11055;DHT22;5580;50.106;8.702;2024-03-08T00:25:07;6.50;99.90
11055;DHT22;5580;50.106;8.702;2024-03-08T00:27:37;6.50;99.90
11055;DHT22;5580;50.106;8.702;2024-03-08T00:30:03;6.40;99.90
11055;DHT22;5580;50.106;8.702;2024-03-08T00:32:29;6.40;99.90
11055;DHT22;5580;50.106;8.702;2024-03-08T00:34:57;6.30;99.90
11055;DHT22;5580;50.106;8.702;2024-03-08T00:37:22;6.30;99.90
11055;DHT22;5580;50.106;8.702;2024-03-08T00:39:51;6.30;99.90
11055;DHT22;5580;50.106;8.702;2024-03-08T00:42:18;6.30;99.90
11055;DHT22;5580;50.106;8.702;2024-03-08T00:44:44;6.30;99.90
11055;DHT22;5580;50.106;8.702;2024-03-08T00:47:10;6.30;99.90
11055;DHT22;5580;50.106;8.702;2024-03-08T00:49:36;6.30;99.90
11055;DHT22;5580;50.106;8.702;2024-03-08T00:52:03;6.30;99.90
11055;DHT22;5580;50.106;8.702;2024-03-08T00:54:31;6.30;99.90
11055;DHT22;5580;50.106;8.702;2024-03-08T00:56:56;6.30;99.90
11055;DHT22;5580;50.106;8.702;2024-03-08T00:59:22;6.30;99.90
11055;DHT22;5580;50.106;8.702;2024-03-08T01:01:47;6.20;99.90
11055;DHT22;5580;50.106;8.702;2024-03-08T01:04:13;6.20;99.90
11055;DHT22;5580;50.106;8.702;2024-03-08T01:06:39;6.10;99.90
11055;DHT22;5580;50.106;8.702;2024-03-08T01:09:04;6.10;99.90
11055;DHT22;5580;50.106;8.702;2024-03-08T01:11:33;6.00;99.90
11055;DHT22;5580;50.106;8.702;2024-03-08T01:13:59;6.00;99.90
11055;DHT22;5580;50.106;8.702;2024-03-08T01:16:24;6.00;99.90
11055;DHT22;5580;50.106;8.702;2024-03-08T01:18:50;5.90;99.90
11055;DHT22;5580;50.106;8.702;2024-03-08T01:21:16;5.90;99.90
11055;DHT22;5580;50.106;8.702;2024-03-08T01:23:41;5.90;99.90
11055;DHT22;5580;50.106;8.702;2024-03-08T01:26:07;5.80;99.90
11055;DHT22;5580;50.106;8.702;2024-03-08T01:28:33;5.80;99.90
11055;DHT22;5580;50.106;8.702;2024-03-08T01:31:00;5.70;99.90
11055;DHT22;5580;50.106;8.702;2024-03-08T01:33:26;5.70;99.90
11055;DHT22;5580;50.106;8.702;2024-03-08T01:35:55;5.70;99.90
11055;DHT22;5580;50.106;8.702;2024-03-08T01:38:22;5.70;99.90
11055;DHT22;5580;50.106;8.702;2024-03-08T01:40:48;5.60;99.90
11055;DHT22;5580;50.106;8.702;2024-03-08T01:43:18;5.60;99.90
11055;DHT22;5580;50.106;8.702;2024-03-08T01:45:44;5.60;99.90
11055;DHT22;5580;50.106;8.702;2024-03-08T01:48:10;5.60;99.90
11055;DHT22;5580;50.106;8.702;2024-03-08T01:50:38;5.60;99.90
11055;DHT22;5580;50.106;8.702;2024-03-08T01:53:05;5.50;99.90
11055;DHT22;5580;50.106;8.702;2024-03-08T01:55:31;5.50;99.90
11055;DHT22;5580;50.106;8.702;2024-03-08T01:57:57;5.50;99.90
11055;DHT22;5580;50.106;8.702;2024-03-08T02:00:24;5.50;99.90
11055;DHT22;5580;50.106;8.702;2024-03-08T02:02:54;5.50;99.90
11055;DHT22;5580;50.106;8.702;2024-03-08T02:05:20;5.50;99.90
11055;DHT22;5580;50.106;8.702;2024-03-08T02:07:46;5.40;99.90
11055;DHT22;5580;50.106;8.702;2024-03-08T02:10:12;5.40;99.90
11055;DHT22;5580;50.106;8.702;2024-03-08T02:12:38;5.40;99.90
11055;DHT22;5580;50.106;8.702;2024-03-08T02:15:04;5.30;99.90
11055;DHT22;5580;50.106;8.702;2024-03-08T02:17:32;5.30;99.90
11055;DHT22;5580;50.106;8.702;2024-03-08T02:19:59;5.30;99.90
11055;DHT22;5580;50.106;8.702;2024-03-08T02:22:27;5.30;99.90
11055;DHT22;5580;50.106;8.702;2024-03-08T02:24:54;5.20;99.90
11055;DHT22;5580;50.106;8.702;2024-03-08T02:27:26;5.20;99.90
11055;DHT22;5580;50.106;8.702;2024-03-08T02:29:54;5.20;99.90
11055;DHT22;5580;50.106;8.702;2024-03-08T02:32:23;5.20;99.90
11055;DHT22;5580;50.106;8.702;2024-03-08T02:34:50;5.20;99.90
11055;DHT22;5580;50.106;8.702;2024-03-08T02:37:19;5.20;99.90
11055;DHT22;5580;50.106;8.702;2024-03-08T02:39:44;5.30;99.90
11055;DHT22;5580;50.106;8.702;2024-03-08T02:42:10;5.30;99.90
11055;DHT22;5580;50.106;8.702;2024-03-08T02:44:36;5.20;99.90
11055;DHT22;5580;50.106;8.702;2024-03-08T02:47:02;5.20;99.90
11055;DHT22;5580;50.106;8.702;2024-03-08T02:49:28;5.20;99.90
11055;DHT22;5580;50.106;8.702;2024-03-08T02:51:54;5.20;99.90
11055;DHT22;5580;50.106;8.702;2024-03-08T02:54:20;5.20;99.90
11055;DHT22;5580;50.106;8.702;2024-03-08T02:56:46;5.20;99.90
11055;DHT22;5580;50.106;8.702;2024-03-08T02:59:12;5.10;99.90
11055;DHT22;5580;50.106;8.702;2024-03-08T03:01:38;5.10;99.90
11055;DHT22;5580;50.106;8.702;2024-03-08T03:04:04;5.10;99.90
11055;DHT22;5580;50.106;8.702;2024-03-08T03:06:30;5.10;99.90
11055;DHT22;5580;50.106;8.702;2024-03-08T03:08:56;5.00;99.90
11055;DHT22;5580;50.106;8.702;2024-03-08T03:11:23;4.90;99.90
11055;DHT22;5580;50.106;8.702;2024-03-08T03:13:48;4.90;99.90
11055;DHT22;5580;50.106;8.702;2024-03-08T03:16:20;4.80;99.90
11055;DHT22;5580;50.106;8.702;2024-03-08T03:18:46;4.80;99.90
11055;DHT22;5580;50.106;8.702;2024-03-08T03:21:13;4.90;99.90
11055;DHT22;5580;50.106;8.702;2024-03-08T03:23:39;4.90;99.90
11055;DHT22;5580;50.106;8.702;2024-03-08T03:26:05;4.90;99.90
11055;DHT22;5580;50.106;8.702;2024-03-08T03:28:34;4.90;99.90
11055;DHT22;5580;50.106;8.702;2024-03-08T03:30:59;4.90;99.90
11055;DHT22;5580;50.106;8.702;2024-03-08T03:33:25;4.90;99.90
11055;DHT22;5580;50.106;8.702;2024-03-08T03:35:51;4.90;99.90
11055;DHT22;5580;50.106;8.702;2024-03-08T03:38:20;4.90;99.90
11055;DHT22;5580;50.106;8.702;2024-03-08T03:40:48;4.90;99.90
11055;DHT22;5580;50.106;8.702;2024-03-08T03:43:17;4.90;99.90
11055;DHT22;5580;50.106;8.702;2024-03-08T03:45:43;4.90;99.90
11055;DHT22;5580;50.106;8.702;2024-03-08T03:48:09;4.80;99.90
11055;DHT22;5580;50.106;8.702;2024-03-08T03:50:35;4.80;99.90
11055;DHT22;5580;50.106;8.702;2024-03-08T03:53:01;4.70;99.90
11055;DHT22;5580;50.106;8.702;2024-03-08T03:55:28;4.70;99.90
11055;DHT22;5580;50.106;8.702;2024-03-08T03:57:54;4.70;99.90
11055;DHT22;5580;50.106;8.702;2024-03-08T04:00:20;4.70;99.90
11055;DHT22;5580;50.106;8.702;2024-03-08T04:02:45;4.60;99.90
11055;DHT22;5580;50.106;8.702;2024-03-08T04:05:12;4.70;99.90
11055;DHT22;5580;50.106;8.702;2024-03-08T04:07:38;4.70;99.90
11055;DHT22;5580;50.106;8.702;2024-03-08T04:10:06;4.60;99.90
11055;DHT22;5580;50.106;8.702;2024-03-08T04:12:33;4.60;99.90
11055;DHT22;5580;50.106;8.702;2024-03-08T04:14:58;4.60;99.90
11055;DHT22;5580;50.106;8.702;2024-03-08T04:17:24;4.50;99.90
11055;DHT22;5580;50.106;8.702;2024-03-08T04:19:50;4.50;99.90
11055;DHT22;5580;50.106;8.702;2024-03-08T04:22:16;4.50;99.90
11055;DHT22;5580;50.106;8.702;2024-03-08T04:24:43;4.40;99.90
11055;DHT22;5580;50.106;8.702;2024-03-08T04:27:09;4.40;99.90
11055;DHT22;5580;50.106;8.702;2024-03-08T04:29:34;4.40;99.90
11055;DHT22;5580;50.106;8.702;2024-03-08T04:32:02;4.50;99.90
11055;DHT22;5580;50.106;8.702;2024-03-08T04:34:29;4.40;99.90
11055;DHT22;5580;50.106;8.702;2024-03-08T04:36:56;4.40;99.90
11055;DHT22;5580;50.106;8.702;2024-03-08T04:39:22;4.40;99.90
11055;DHT22;5580;50.106;8.702;2024-03-08T04:41:49;4.40;99.90
11055;DHT22;5580;50.106;8.702;2024-03-08T04:44:14;4.30;99.90
11055;DHT22;5580;50.106;8.702;2024-03-08T04:46:40;4.30;99.90
11055;DHT22;5580;50.106;8.702;2024-03-08T04:49:06;4.30;99.90
11055;DHT22;5580;50.106;8.702;2024-03-08T04:51:32;4.20;99.90
11055;DHT22;5580;50.106;8.702;2024-03-08T04:53:59;4.20;99.90
11055;DHT22;5580;50.106;8.702;2024-03-08T04:56:25;4.20;99.90
11055;DHT22;5580;50.106;8.702;2024-03-08T04:58:52;4.20;99.90
11055;DHT22;5580;50.106;8.702;2024-03-08T05:01:17;4.10;99.90
11055;DHT22;5580;50.106;8.702;2024-03-08T05:03:43;4.10;99.90
11055;DHT22;5580;50.106;8.702;2024-03-08T05:06:09;4.10;99.90
11055;DHT22;5580;50.106;8.702;2024-03-08T05:08:34;4.10;99.90
11055;DHT22;5580;50.106;8.702;2024-03-08T05:11:00;4.10;99.90
11055;DHT22;5580;50.106;8.702;2024-03-08T05:13:30;4.10;99.90
11055;DHT22;5580;50.106;8.702;2024-03-08T05:15:56;4.00;99.90
11055;DHT22;5580;50.106;8.702;2024-03-08T05:18:24;4.00;99.90
11055;DHT22;5580;50.106;8.702;2024-03-08T05:20:49;4.00;99.90
11055;DHT22;5580;50.106;8.702;2024-03-08T05:23:16;4.00;99.90
11055;DHT22;5580;50.106;8.702;2024-03-08T05:25:42;4.00;99.90
11055;DHT22;5580;50.106;8.702;2024-03-08T05:28:07;4.00;99.90
11055;DHT22;5580;50.106;8.702;2024-03-08T05:30:34;4.00;99.90
11055;DHT22;5580;50.106;8.702;2024-03-08T05:33:01;3.90;99.90
11055;DHT22;5580;50.106;8.702;2024-03-08T05:35:27;3.90;99.90
11055;DHT22;5580;50.106;8.702;2024-03-08T05:37:52;3.90;99.90
11055;DHT22;5580;50.106;8.702;2024-03-08T05:40:18;3.90;99.90
11055;DHT22;5580;50.106;8.702;2024-03-08T05:42:44;3.80;99.90
11055;DHT22;5580;50.106;8.702;2024-03-08T05:45:10;3.70;99.90
11055;DHT22;5580;50.106;8.702;2024-03-08T05:47:36;3.70;99.90
11055;DHT22;5580;50.106;8.702;2024-03-08T05:50:02;3.60;99.90
11055;DHT22;5580;50.106;8.702;2024-03-08T05:52:27;3.60;99.90
11055;DHT22;5580;50.106;8.702;2024-03-08T05:54:53;3.60;99.90
11055;DHT22;5580;50.106;8.702;2024-03-08T05:57:19;3.60;99.90
11055;DHT22;5580;50.106;8.702;2024-03-08T05:59:44;3.50;99.90
11055;DHT22;5580;50.106;8.702;2024-03-08T06:02:10;3.50;99.90
11055;DHT22;5580;50.106;8.702;2024-03-08T06:04:35;3.50;99.90
11055;DHT22;5580;50.106;8.702;2024-03-08T06:07:01;3.60;99.90
11055;DHT22;5580;50.106;8.702;2024-03-08T06:09:28;3.60;99.90
11055;DHT22;5580;50.106;8.702;2024-03-08T06:11:54;3.60;99.90
11055;DHT22;5580;50.106;8.702;2024-03-08T06:14:20;3.60;99.90
11055;DHT22;5580;50.106;8.702;2024-03-08T06:16:46;3.60;99.90
11055;DHT22;5580;50.106;8.702;2024-03-08T06:19:13;3.60;99.90
11055;DHT22;5580;50.106;8.702;2024-03-08T06:21:38;3.60;99.90
11055;DHT22;5580;50.106;8.702;2024-03-08T06:24:04;3.60;99.90
11055;DHT22;5580;50.106;8.702;2024-03-08T06:26:30;3.60;99.90
11055;DHT22;5580;50.106;8.702;2024-03-08T06:28:56;3.60;99.90
11055;DHT22;5580;50.106;8.702;2024-03-08T06:31:22;3.60;99.90
11055;DHT22;5580;50.106;8.702;2024-03-08T06:33:48;3.60;99.90
11055;DHT22;5580;50.106;8.702;2024-03-08T06:36:17;3.60;99.90
11055;DHT22;5580;50.106;8.702;2024-03-08T06:38:47;3.60;99.90
11055;DHT22;5580;50.106;8.702;2024-03-08T06:41:13;3.60;99.90
11055;DHT22;5580;50.106;8.702;2024-03-08T06:43:45;3.70;99.90
11055;DHT22;5580;50.106;8.702;2024-03-08T06:46:12;3.70;99.90
11055;DHT22;5580;50.106;8.702;2024-03-08T06:48:39;3.60;99.90
11055;DHT22;5580;50.106;8.702;2024-03-08T06:51:04;3.70;99.90
11055;DHT22;5580;50.106;8.702;2024-03-08T06:53:31;3.60;99.90
11055;DHT22;5580;50.106;8.702;2024-03-08T06:55:57;3.70;99.90
11055;DHT22;5580;50.106;8.702;2024-03-08T06:58:23;3.70;99.90
11055;DHT22;5580;50.106;8.702;2024-03-08T07:00:48;3.60;99.90
11055;DHT22;5580;50.106;8.702;2024-03-08T07:03:17;3.60;99.90
11055;DHT22;5580;50.106;8.702;2024-03-08T07:05:43;3.70;99.90
11055;DHT22;5580;50.106;8.702;2024-03-08T07:08:09;3.70;99.90
11055;DHT22;5580;50.106;8.702;2024-03-08T07:10:34;3.80;99.90
11055;DHT22;5580;50.106;8.702;2024-03-08T07:13:02;3.80;99.90
11055;DHT22;5580;50.106;8.702;2024-03-08T07:15:28;3.90;99.90
11055;DHT22;5580;50.106;8.702;2024-03-08T07:17:54;3.90;99.90
11055;DHT22;5580;50.106;8.702;2024-03-08T07:20:20;4.00;99.90
11055;DHT22;5580;50.106;8.702;2024-03-08T07:22:47;4.00;99.90
11055;DHT22;5580;50.106;8.702;2024-03-08T07:25:13;4.00;99.90
11055;DHT22;5580;50.106;8.702;2024-03-08T07:27:53;4.10;99.90
11055;DHT22;5580;50.106;8.702;2024-03-08T07:30:20;4.10;99.90
11055;DHT22;5580;50.106;8.702;2024-03-08T07:33:05;4.10;99.90
11055;DHT22;5580;50.106;8.702;2024-03-08T07:35:35;4.00;99.90
11055;DHT22;5580;50.106;8.702;2024-03-08T07:38:09;4.00;99.90
11055;DHT22;5580;50.106;8.702;2024-03-08T07:40:36;3.90;99.90
11055;DHT22;5580;50.106;8.702;2024-03-08T07:43:03;3.90;99.90
11055;DHT22;5580;50.106;8.702;2024-03-08T07:45:29;3.90;99.90
11055;DHT22;5580;50.106;8.702;2024-03-08T07:47:56;3.90;99.90
11055;DHT22;5580;50.106;8.702;2024-03-08T07:50:22;3.90;99.90
11055;DHT22;5580;50.106;8.702;2024-03-08T07:52:48;4.00;99.90
11055;DHT22;5580;50.106;8.702;2024-03-08T07:55:13;4.00;99.90
11055;DHT22;5580;50.106;8.702;2024-03-08T07:57:40;4.00;99.90
11055;DHT22;5580;50.106;8.702;2024-03-08T08:00:06;4.00;99.90
11055;DHT22;5580;50.106;8.702;2024-03-08T08:02:34;4.00;99.90
11055;DHT22;5580;50.106;8.702;2024-03-08T08:05:01;4.10;99.90
11055;DHT22;5580;50.106;8.702;2024-03-08T08:07:26;4.10;99.90
11055;DHT22;5580;50.106;8.702;2024-03-08T08:09:53;4.10;99.90
11055;DHT22;5580;50.106;8.702;2024-03-08T08:12:18;4.10;99.90
11055;DHT22;5580;50.106;8.702;2024-03-08T08:14:44;4.20;99.90
11055;DHT22;5580;50.106;8.702;2024-03-08T08:17:09;4.30;99.90
11055;DHT22;5580;50.106;8.702;2024-03-08T08:19:35;4.30;99.90
11055;DHT22;5580;50.106;8.702;2024-03-08T08:22:01;4.40;99.90
11055;DHT22;5580;50.106;8.702;2024-03-08T08:24:30;4.40;99.90
11055;DHT22;5580;50.106;8.702;2024-03-08T08:26:55;4.50;99.90
11055;DHT22;5580;50.106;8.702;2024-03-08T08:29:21;4.50;99.90
11055;DHT22;5580;50.106;8.702;2024-03-08T08:31:48;4.50;99.90
11055;DHT22;5580;50.106;8.702;2024-03-08T08:34:16;4.60;99.90
11055;DHT22;5580;50.106;8.702;2024-03-08T08:36:44;4.70;99.90
11055;DHT22;5580;50.106;8.702;2024-03-08T08:39:10;4.70;99.90
11055;DHT22;5580;50.106;8.702;2024-03-08T08:41:39;4.80;99.90
11055;DHT22;5580;50.106;8.702;2024-03-08T08:44:07;4.80;99.90
11055;DHT22;5580;50.106;8.702;2024-03-08T08:46:36;4.80;99.90
11055;DHT22;5580;50.106;8.702;2024-03-08T08:49:03;4.80;99.90
11055;DHT22;5580;50.106;8.702;2024-03-08T08:51:29;4.80;99.90
11055;DHT22;5580;50.106;8.702;2024-03-08T08:53:54;4.90;99.90
11055;DHT22;5580;50.106;8.702;2024-03-08T08:56:21;5.00;99.90
11055;DHT22;5580;50.106;8.702;2024-03-08T08:58:47;5.00;99.90
11055;DHT22;5580;50.106;8.702;2024-03-08T09:01:14;5.10;99.90
11055;DHT22;5580;50.106;8.702;2024-03-08T09:03:40;5.10;99.90
11055;DHT22;5580;50.106;8.702;2024-03-08T09:06:09;5.20;99.90
11055;DHT22;5580;50.106;8.702;2024-03-08T09:08:41;5.30;99.90
11055;DHT22;5580;50.106;8.702;2024-03-08T09:11:07;5.40;99.90
11055;DHT22;5580;50.106;8.702;2024-03-08T09:13:33;5.50;99.90
11055;DHT22;5580;50.106;8.702;2024-03-08T09:16:04;5.60;99.90
11055;DHT22;5580;50.106;8.702;2024-03-08T09:18:32;5.70;99.90
11055;DHT22;5580;50.106;8.702;2024-03-08T09:20:58;5.80;99.90
11055;DHT22;5580;50.106;8.702;2024-03-08T09:23:25;5.90;99.90
11055;DHT22;5580;50.106;8.702;2024-03-08T09:25:52;6.10;99.90
11055;DHT22;5580;50.106;8.702;2024-03-08T09:28:17;6.10;99.90
11055;DHT22;5580;50.106;8.702;2024-03-08T09:30:43;6.20;99.90
11055;DHT22;5580;50.106;8.702;2024-03-08T09:33:10;6.30;99.90
11055;DHT22;5580;50.106;8.702;2024-03-08T09:35:36;6.30;99.90
11055;DHT22;5580;50.106;8.702;2024-03-08T09:38:02;6.40;99.90
11055;DHT22;5580;50.106;8.702;2024-03-08T09:40:30;6.50;99.90
11055;DHT22;5580;50.106;8.702;2024-03-08T09:42:55;6.60;99.90
11055;DHT22;5580;50.106;8.702;2024-03-08T09:45:23;6.70;99.90
11055;DHT22;5580;50.106;8.702;2024-03-08T09:47:50;6.80;99.90
11055;DHT22;5580;50.106;8.702;2024-03-08T09:50:17;6.80;99.90
11055;DHT22;5580;50.106;8.702;2024-03-08T09:52:47;6.90;99.90
11055;DHT22;5580;50.106;8.702;2024-03-08T09:55:12;6.90;99.90
11055;DHT22;5580;50.106;8.702;2024-03-08T09:57:39;7.00;99.90
11055;DHT22;5580;50.106;8.702;2024-03-08T10:00:05;7.00;99.90
11055;DHT22;5580;50.106;8.702;2024-03-08T10:02:47;7.10;99.90
11055;DHT22;5580;50.106;8.702;2024-03-08T10:05:13;7.10;99.90
11055;DHT22;5580;50.106;8.702;2024-03-08T10:07:39;7.20;99.90
11055;DHT22;5580;50.106;8.702;2024-03-08T10:10:05;7.20;99.90
11055;DHT22;5580;50.106;8.702;2024-03-08T10:12:34;7.30;99.90
11055;DHT22;5580;50.106;8.702;2024-03-08T10:15:00;7.40;99.90
11055;DHT22;5580;50.106;8.702;2024-03-08T10:17:26;7.40;99.90
11055;DHT22;5580;50.106;8.702;2024-03-08T10:19:52;7.50;99.90
11055;DHT22;5580;50.106;8.702;2024-03-08T10:22:19;7.60;99.90
11055;DHT22;5580;50.106;8.702;2024-03-08T10:24:49;7.70;99.90
11055;DHT22;5580;50.106;8.702;2024-03-08T10:27:18;7.70;99.90
11055;DHT22;5580;50.106;8.702;2024-03-08T10:29:48;7.80;99.90
11055;DHT22;5580;50.106;8.702;2024-03-08T10:32:14;7.80;99.90
11055;DHT22;5580;50.106;8.702;2024-03-08T10:34:40;7.80;99.90
11055;DHT22;5580;50.106;8.702;2024-03-08T10:37:08;7.90;99.90
11055;DHT22;5580;50.106;8.702;2024-03-08T10:39:41;7.90;99.90
11055;DHT22;5580;50.106;8.702;2024-03-08T10:42:16;7.90;99.90
11055;DHT22;5580;50.106;8.702;2024-03-08T10:45:05;7.90;99.90
11055;DHT22;5580;50.106;8.702;2024-03-08T10:47:37;7.90;99.90
11055;DHT22;5580;50.106;8.702;2024-03-08T10:52:32;7.90;99.90
11055;DHT22;5580;50.106;8.702;2024-03-08T10:55:01;7.90;99.90
11055;DHT22;5580;50.106;8.702;2024-03-08T10:57:27;7.90;99.90
11055;DHT22;5580;50.106;8.702;2024-03-08T10:59:53;7.90;99.90
11055;DHT22;5580;50.106;8.702;2024-03-08T11:02:19;7.90;99.90
11055;DHT22;5580;50.106;8.702;2024-03-08T11:04:49;7.90;99.90
11055;DHT22;5580;50.106;8.702;2024-03-08T11:07:16;8.00;99.90
11055;DHT22;5580;50.106;8.702;2024-03-08T11:09:47;8.10;99.90
11055;DHT22;5580;50.106;8.702;2024-03-08T11:12:27;8.10;99.90
11055;DHT22;5580;50.106;8.702;2024-03-08T11:15:03;8.10;99.90
11055;DHT22;5580;50.106;8.702;2024-03-08T11:20:13;8.10;99.90
11055;DHT22;5580;50.106;8.702;2024-03-08T11:22:52;8.20;99.90
11055;DHT22;5580;50.106;8.702;2024-03-08T11:25:38;8.20;99.90
11055;DHT22;5580;50.106;8.702;2024-03-08T11:28:16;8.20;99.90
11055;DHT22;5580;50.106;8.702;2024-03-08T11:31:25;8.20;99.90
11055;DHT22;5580;50.106;8.702;2024-03-08T11:33:35;8.30;99.90
11055;DHT22;5580;50.106;8.702;2024-03-08T11:38:43;8.40;99.90
11055;DHT22;5580;50.106;8.702;2024-03-08T11:41:19;8.50;99.90
11055;DHT22;5580;50.106;8.702;2024-03-08T11:43:45;8.40;99.90
11055;DHT22;5580;50.106;8.702;2024-03-08T11:46:12;8.40;99.90
11055;DHT22;5580;50.106;8.702;2024-03-08T11:48:42;8.50;99.90
11055;DHT22;5580;50.106;8.702;2024-03-08T11:51:08;8.50;99.90
11055;DHT22;5580;50.106;8.702;2024-03-08T11:53:34;8.50;99.90
11055;DHT22;5580;50.106;8.702;2024-03-08T11:56:09;8.50;99.90
11055;DHT22;5580;50.106;8.702;2024-03-08T11:58:37;8.50;99.90
11055;DHT22;5580;50.106;8.702;2024-03-08T12:01:07;8.50;99.90
11055;DHT22;5580;50.106;8.702;2024-03-08T12:03:41;8.50;99.90
11055;DHT22;5580;50.106;8.702;2024-03-08T12:06:10;8.60;99.90
11055;DHT22;5580;50.106;8.702;2024-03-08T12:08:36;8.70;99.90
11055;DHT22;5580;50.106;8.702;2024-03-08T12:11:05;8.70;99.90
11055;DHT22;5580;50.106;8.702;2024-03-08T12:13:33;8.80;99.90
11055;DHT22;5580;50.106;8.702;2024-03-08T12:16:00;8.80;99.90
11055;DHT22;5580;50.106;8.702;2024-03-08T12:18:26;8.80;99.90
11055;DHT22;5580;50.106;8.702;2024-03-08T12:21:07;8.80;99.90
11055;DHT22;5580;50.106;8.702;2024-03-08T12:23:38;8.90;99.90
11055;DHT22;5580;50.106;8.702;2024-03-08T12:26:23;8.90;99.90
11055;DHT22;5580;50.106;8.702;2024-03-08T12:28:49;9.00;99.90
11055;DHT22;5580;50.106;8.702;2024-03-08T12:31:16;8.90;99.90
11055;DHT22;5580;50.106;8.702;2024-03-08T12:33:52;9.00;99.90
11055;DHT22;5580;50.106;8.702;2024-03-08T12:36:19;9.00;99.90
11055;DHT22;5580;50.106;8.702;2024-03-08T12:38:49;9.00;99.90
11055;DHT22;5580;50.106;8.702;2024-03-08T12:41:19;9.00;99.90
11055;DHT22;5580;50.106;8.702;2024-03-08T12:43:45;9.00;99.90
11055;DHT22;5580;50.106;8.702;2024-03-08T12:46:18;9.10;99.90
11055;DHT22;5580;50.106;8.702;2024-03-08T12:48:52;9.10;99.90
11055;DHT22;5580;50.106;8.702;2024-03-08T12:51:20;9.20;99.90
11055;DHT22;5580;50.106;8.702;2024-03-08T12:53:46;9.20;99.90
11055;DHT22;5580;50.106;8.702;2024-03-08T12:56:13;9.30;99.90
11055;DHT22;5580;50.106;8.702;2024-03-08T12:58:40;9.40;99.90
11055;DHT22;5580;50.106;8.702;2024-03-08T13:01:06;9.40;99.90
11055;DHT22;5580;50.106;8.702;2024-03-08T13:03:34;9.40;99.90
11055;DHT22;5580;50.106;8.702;2024-03-08T13:06:04;9.50;99.90
11055;DHT22;5580;50.106;8.702;2024-03-08T13:08:37;9.60;99.90
11055;DHT22;5580;50.106;8.702;2024-03-08T13:11:07;9.70;99.90
11055;DHT22;5580;50.106;8.702;2024-03-08T13:13:34;9.70;99.90
11055;DHT22;5580;50.106;8.702;2024-03-08T13:16:02;9.80;99.90
11055;DHT22;5580;50.106;8.702;2024-03-08T13:18:28;9.90;99.90
11055;DHT22;5580;50.106;8.702;2024-03-08T13:20:55;9.90;99.90
11055;DHT22;5580;50.106;8.702;2024-03-08T13:23:23;9.90;99.90
11055;DHT22;5580;50.106;8.702;2024-03-08T13:25:48;9.90;99.90
11055;DHT22;5580;50.106;8.702;2024-03-08T13:28:14;9.90;99.90
11055;DHT22;5580;50.106;8.702;2024-03-08T13:30:41;9.90;99.90
11055;DHT22;5580;50.106;8.702;2024-03-08T13:33:07;9.90;99.90
11055;DHT22;5580;50.106;8.702;2024-03-08T13:35:33;10.00;99.90
11055;DHT22;5580;50.106;8.702;2024-03-08T13:38:00;10.00;99.90
11055;DHT22;5580;50.106;8.702;2024-03-08T13:40:28;10.00;99.90
11055;DHT22;5580;50.106;8.702;2024-03-08T13:42:54;10.00;99.90
11055;DHT22;5580;50.106;8.702;2024-03-08T13:45:20;10.00;99.90
11055;DHT22;5580;50.106;8.702;2024-03-08T13:47:49;10.00;99.90
11055;DHT22;5580;50.106;8.702;2024-03-08T13:50:17;10.00;99.90
11055;DHT22;5580;50.106;8.702;2024-03-08T13:52:50;10.10;99.90
11055;DHT22;5580;50.106;8.702;2024-03-08T13:55:23;10.10;99.90
11055;DHT22;5580;50.106;8.702;2024-03-08T13:57:51;10.10;99.90
11055;DHT22;5580;50.106;8.702;2024-03-08T14:00:17;10.10;99.90
11055;DHT22;5580;50.106;8.702;2024-03-08T14:02:43;10.10;99.90
11055;DHT22;5580;50.106;8.702;2024-03-08T14:05:10;10.10;99.90
11055;DHT22;5580;50.106;8.702;2024-03-08T14:07:37;10.10;99.90
11055;DHT22;5580;50.106;8.702;2024-03-08T14:10:05;10.20;99.90
11055;DHT22;5580;50.106;8.702;2024-03-08T14:12:33;10.20;99.90
11055;DHT22;5580;50.106;8.702;2024-03-08T14:14:59;10.20;99.90
11055;DHT22;5580;50.106;8.702;2024-03-08T14:17:28;10.20;99.90
11055;DHT22;5580;50.106;8.702;2024-03-08T14:19:56;10.20;99.90
11055;DHT22;5580;50.106;8.702;2024-03-08T14:22:22;10.20;99.90
11055;DHT22;5580;50.106;8.702;2024-03-08T14:24:49;10.30;99.90
11055;DHT22;5580;50.106;8.702;2024-03-08T14:27:15;10.30;99.90
11055;DHT22;5580;50.106;8.702;2024-03-08T14:29:44;10.30;99.90
11055;DHT22;5580;50.106;8.702;2024-03-08T14:32:10;10.30;99.90
11055;DHT22;5580;50.106;8.702;2024-03-08T14:34:38;10.30;99.90
11055;DHT22;5580;50.106;8.702;2024-03-08T14:37:04;10.30;99.90
11055;DHT22;5580;50.106;8.702;2024-03-08T14:39:33;10.30;99.90
11055;DHT22;5580;50.106;8.702;2024-03-08T14:42:00;10.40;99.90
11055;DHT22;5580;50.106;8.702;2024-03-08T14:44:27;10.40;99.90
11055;DHT22;5580;50.106;8.702;2024-03-08T14:46:58;10.40;99.90
11055;DHT22;5580;50.106;8.702;2024-03-08T14:49:24;10.50;99.90
11055;DHT22;5580;50.106;8.702;2024-03-08T14:51:55;10.50;99.90
11055;DHT22;5580;50.106;8.702;2024-03-08T14:54:20;10.50;99.90
11055;DHT22;5580;50.106;8.702;2024-03-08T14:56:48;10.50;99.90
11055;DHT22;5580;50.106;8.702;2024-03-08T14:59:16;10.50;99.90
11055;DHT22;5580;50.106;8.702;2024-03-08T15:01:42;10.50;99.90
11055;DHT22;5580;50.106;8.702;2024-03-08T15:04:09;10.50;99.90
11055;DHT22;5580;50.106;8.702;2024-03-08T15:06:38;10.60;99.90
11055;DHT22;5580;50.106;8.702;2024-03-08T15:09:05;10.60;99.90
11055;DHT22;5580;50.106;8.702;2024-03-08T15:11:38;10.70;99.90
11055;DHT22;5580;50.106;8.702;2024-03-08T15:14:05;10.70;99.90
11055;DHT22;5580;50.106;8.702;2024-03-08T15:16:38;10.70;99.90
11055;DHT22;5580;50.106;8.702;2024-03-08T15:19:06;10.70;99.90
11055;DHT22;5580;50.106;8.702;2024-03-08T15:21:32;10.70;99.90
11055;DHT22;5580;50.106;8.702;2024-03-08T15:23:59;10.70;99.90
11055;DHT22;5580;50.106;8.702;2024-03-08T15:26:25;10.70;99.90
11055;DHT22;5580;50.106;8.702;2024-03-08T15:28:51;10.80;99.90
11055;DHT22;5580;50.106;8.702;2024-03-08T15:31:17;10.80;99.90
11055;DHT22;5580;50.106;8.702;2024-03-08T15:33:44;10.80;99.90
11055;DHT22;5580;50.106;8.702;2024-03-08T15:36:15;10.90;99.90
11055;DHT22;5580;50.106;8.702;2024-03-08T15:38:42;10.90;99.90
11055;DHT22;5580;50.106;8.702;2024-03-08T15:41:14;10.90;99.90
11055;DHT22;5580;50.106;8.702;2024-03-08T15:43:40;10.90;99.90
11055;DHT22;5580;50.106;8.702;2024-03-08T15:46:07;10.90;99.90
11055;DHT22;5580;50.106;8.702;2024-03-08T15:48:34;10.90;99.90
11055;DHT22;5580;50.106;8.702;2024-03-08T15:51:03;10.90;99.90
11055;DHT22;5580;50.106;8.702;2024-03-08T15:53:34;10.90;99.90
11055;DHT22;5580;50.106;8.702;2024-03-08T15:56:01;10.90;99.90
11055;DHT22;5580;50.106;8.702;2024-03-08T15:58:28;10.90;99.90
11055;DHT22;5580;50.106;8.702;2024-03-08T16:00:55;10.90;99.90
11055;DHT22;5580;50.106;8.702;2024-03-08T16:03:22;10.90;99.90
11055;DHT22;5580;50.106;8.702;2024-03-08T16:05:48;10.90;99.90
11055;DHT22;5580;50.106;8.702;2024-03-08T16:08:18;10.90;99.90